sensor_id;sensor_type;location;lat;lon;timestamp;P1;durP1;ratioP1;P2;durP2;ratioP2
43457;SDS011;29046;54.184;18.680;2022-12-05T00:02:54;28.90;;;12.25;;
43457;SDS011;29046;54.184;18.680;2022-12-05T00:05:38;34.22;;;13.90;;
43457;SDS011;29046;54.184;18.680;2022-12-05T00:08:25;33.42;;;12.43;;
43457;SDS011;29046;54.184;18.680;2022-12-05T00:10:59;28.33;;;13.48;;
43457;SDS011;29046;54.184;18.680;2022-12-05T00:13:55;34.60;;;14.07;;
43457;SDS011;29046;54.184;18.680;2022-12-05T00:16:50;33.20;;;15.35;;
43457;SDS011;29046;54.184;18.680;2022-12-05T00:19:31;42.13;;;15.05;;
43457;SDS011;29046;54.184;18.680;2022-12-05T00:22:11;29.25;;;13.60;;
43457;SDS011;29046;54.184;18.680;2022-12-05T00:24:52;30.10;;;13.20;;
43457;SDS011;29046;54.184;18.680;2022-12-05T00:27:32;25.58;;;12.65;;
43457;SDS011;29046;54.184;18.680;2022-12-05T00:30:14;31.73;;;13.45;;
43457;SDS011;29046;54.184;18.680;2022-12-05T00:32:54;33.78;;;14.77;;
43457;SDS011;29046;54.184;18.680;2022-12-05T00:35:35;26.27;;;13.00;;
43457;SDS011;29046;54.184;18.680;2022-12-05T00:38:15;33.35;;;14.48;;
43457;SDS011;29046;54.184;18.680;2022-12-05T00:41:08;36.28;;;13.88;;
43457;SDS011;29046;54.184;18.680;2022-12-05T00:43:57;33.75;;;13.73;;
43457;SDS011;29046;54.184;18.680;2022-12-05T00:46:38;32.42;;;13.95;;
43457;SDS011;29046;54.184;18.680;2022-12-05T00:49:25;30.40;;;13.45;;
43457;SDS011;29046;54.184;18.680;2022-12-05T00:52:00;24.70;;;12.07;;
43457;SDS011;29046;54.184;18.680;2022-12-05T00:54:47;24.70;;;10.90;;
43457;SDS011;29046;54.184;18.680;2022-12-05T00:57:28;23.17;;;11.85;;
43457;SDS011;29046;54.184;18.680;2022-12-05T01:00:08;31.27;;;12.95;;
43457;SDS011;29046;54.184;18.680;2022-12-05T01:02:50;23.65;;;11.32;;
43457;SDS011;29046;54.184;18.680;2022-12-05T01:05:32;26.58;;;12.77;;
43457;SDS011;29046;54.184;18.680;2022-12-05T01:08:13;28.48;;;13.15;;
43457;SDS011;29046;54.184;18.680;2022-12-05T01:10:54;33.92;;;13.48;;
43457;SDS011;29046;54.184;18.680;2022-12-05T01:13:35;26.17;;;12.25;;
43457;SDS011;29046;54.184;18.680;2022-12-05T01:16:30;26.48;;;13.27;;
43457;SDS011;29046;54.184;18.680;2022-12-05T01:19:08;25.88;;;11.73;;
43457;SDS011;29046;54.184;18.680;2022-12-05T01:21:57;32.25;;;13.65;;
43457;SDS011;29046;54.184;18.680;2022-12-05T01:24:32;28.75;;;11.93;;
43457;SDS011;29046;54.184;18.680;2022-12-05T01:27:19;30.38;;;14.55;;
43457;SDS011;29046;54.184;18.680;2022-12-05T01:29:54;27.10;;;12.73;;
43457;SDS011;29046;54.184;18.680;2022-12-05T01:32:41;29.67;;;12.48;;
43457;SDS011;29046;54.184;18.680;2022-12-05T01:35:16;28.85;;;12.20;;
43457;SDS011;29046;54.184;18.680;2022-12-05T01:38:03;26.00;;;12.98;;
43457;SDS011;29046;54.184;18.680;2022-12-05T01:40:38;30.70;;;12.60;;
43457;SDS011;29046;54.184;18.680;2022-12-05T01:43:25;25.55;;;13.27;;
43457;SDS011;29046;54.184;18.680;2022-12-05T01:46:07;34.38;;;15.10;;
43457;SDS011;29046;54.184;18.680;2022-12-05T01:48:47;28.08;;;14.30;;
43457;SDS011;29046;54.184;18.680;2022-12-05T01:51:29;36.78;;;14.07;;
43457;SDS011;29046;54.184;18.680;2022-12-05T01:54:18;30.58;;;13.35;;
43457;SDS011;29046;54.184;18.680;2022-12-05T01:56:58;26.42;;;12.90;;
43457;SDS011;29046;54.184;18.680;2022-12-05T01:59:48;26.42;;;11.50;;
43457;SDS011;29046;54.184;18.680;2022-12-05T02:02:23;25.52;;;12.90;;
43457;SDS011;29046;54.184;18.680;2022-12-05T02:05:14;28.95;;;12.68;;
43457;SDS011;29046;54.184;18.680;2022-12-05T02:07:50;31.50;;;14.05;;
43457;SDS011;29046;54.184;18.680;2022-12-05T02:10:45;28.95;;;13.23;;
43457;SDS011;29046;54.184;18.680;2022-12-05T02:25:24;27.95;;;12.40;;
43457;SDS011;29046;54.184;18.680;2022-12-05T02:28:08;22.02;;;11.65;;
43457;SDS011;29046;54.184;18.680;2022-12-05T02:31:32;23.23;;;11.52;;
43457;SDS011;29046;54.184;18.680;2022-12-05T02:34:26;21.65;;;10.48;;
43457;SDS011;29046;54.184;18.680;2022-12-05T02:37:22;26.45;;;11.50;;
43457;SDS011;29046;54.184;18.680;2022-12-05T02:40:08;31.17;;;13.40;;
43457;SDS011;29046;54.184;18.680;2022-12-05T02:43:11;32.47;;;12.07;;
43457;SDS011;29046;54.184;18.680;2022-12-05T02:46:10;32.42;;;12.55;;
43457;SDS011;29046;54.184;18.680;2022-12-05T02:48:45;26.50;;;13.70;;
43457;SDS011;29046;54.184;18.680;2022-12-05T02:51:36;24.33;;;11.52;;
43457;SDS011;29046;54.184;18.680;2022-12-05T02:54:13;24.92;;;11.45;;
43457;SDS011;29046;54.184;18.680;2022-12-05T02:57:05;29.73;;;11.88;;
43457;SDS011;29046;54.184;18.680;2022-12-05T02:59:40;25.98;;;12.60;;
43457;SDS011;29046;54.184;18.680;2022-12-05T03:02:31;23.85;;;11.13;;
43457;SDS011;29046;54.184;18.680;2022-12-05T03:08:21;29.70;;;13.23;;
43457;SDS011;29046;54.184;18.680;2022-12-05T03:11:16;28.88;;;13.02;;
43457;SDS011;29046;54.184;18.680;2022-12-05T03:14:12;38.67;;;14.15;;
43457;SDS011;29046;54.184;18.680;2022-12-05T03:16:51;26.23;;;12.40;;
43457;SDS011;29046;54.184;18.680;2022-12-05T03:25:45;32.80;;;13.75;;
43457;SDS011;29046;54.184;18.680;2022-12-05T03:31:10;32.80;;;12.93;;
43457;SDS011;29046;54.184;18.680;2022-12-05T03:34:03;28.80;;;12.88;;
43457;SDS011;29046;54.184;18.680;2022-12-05T03:36:40;30.87;;;13.23;;
43457;SDS011;29046;54.184;18.680;2022-12-05T03:39:38;32.35;;;14.60;;
43457;SDS011;29046;54.184;18.680;2022-12-05T03:42:18;39.30;;;17.02;;
43457;SDS011;29046;54.184;18.680;2022-12-05T03:47:37;32.47;;;13.45;;
43457;SDS011;29046;54.184;18.680;2022-12-05T03:50:21;24.38;;;12.27;;
43457;SDS011;29046;54.184;18.680;2022-12-05T03:53:08;22.85;;;12.68;;
43457;SDS011;29046;54.184;18.680;2022-12-05T03:55:58;38.75;;;15.00;;
43457;SDS011;29046;54.184;18.680;2022-12-05T03:59:04;36.65;;;15.27;;
43457;SDS011;29046;54.184;18.680;2022-12-05T04:01:47;31.45;;;14.10;;
43457;SDS011;29046;54.184;18.680;2022-12-05T04:04:36;30.33;;;13.95;;
43457;SDS011;29046;54.184;18.680;2022-12-05T04:07:11;31.15;;;10.77;;
43457;SDS011;29046;54.184;18.680;2022-12-05T04:10:01;28.05;;;12.27;;
43457;SDS011;29046;54.184;18.680;2022-12-05T04:12:36;18.95;;;9.45;;
43457;SDS011;29046;54.184;18.680;2022-12-05T04:15:27;21.35;;;11.30;;
43457;SDS011;29046;54.184;18.680;2022-12-05T04:18:29;25.02;;;10.35;;
43457;SDS011;29046;54.184;18.680;2022-12-05T04:21:10;26.98;;;11.73;;
43457;SDS011;29046;54.184;18.680;2022-12-05T04:24:12;21.80;;;10.98;;
43457;SDS011;29046;54.184;18.680;2022-12-05T04:30:02;16.48;;;9.27;;
43457;SDS011;29046;54.184;18.680;2022-12-05T04:35:54;23.40;;;11.43;;
43457;SDS011;29046;54.184;18.680;2022-12-05T04:38:49;22.98;;;10.40;;
43457;SDS011;29046;54.184;18.680;2022-12-05T04:41:33;25.92;;;11.15;;
43457;SDS011;29046;54.184;18.680;2022-12-05T04:44:16;26.17;;;10.20;;
43457;SDS011;29046;54.184;18.680;2022-12-05T04:46:59;16.52;;;9.82;;
43457;SDS011;29046;54.184;18.680;2022-12-05T04:49:49;21.95;;;9.63;;
43457;SDS011;29046;54.184;18.680;2022-12-05T04:52:26;22.30;;;10.18;;
43457;SDS011;29046;54.184;18.680;2022-12-05T04:55:16;28.38;;;12.20;;
43457;SDS011;29046;54.184;18.680;2022-12-05T04:58:06;31.98;;;14.35;;
43457;SDS011;29046;54.184;18.680;2022-12-05T05:01:11;32.97;;;15.07;;
43457;SDS011;29046;54.184;18.680;2022-12-05T05:07:07;28.85;;;11.95;;
43457;SDS011;29046;54.184;18.680;2022-12-05T05:09:42;24.70;;;11.57;;
43457;SDS011;29046;54.184;18.680;2022-12-05T05:12:30;21.65;;;8.88;;
43457;SDS011;29046;54.184;18.680;2022-12-05T05:15:04;19.98;;;10.07;;
43457;SDS011;29046;54.184;18.680;2022-12-05T05:17:59;21.42;;;9.80;;
43457;SDS011;29046;54.184;18.680;2022-12-05T05:20:53;22.60;;;8.82;;
43457;SDS011;29046;54.184;18.680;2022-12-05T05:23:27;26.20;;;10.10;;
43457;SDS011;29046;54.184;18.680;2022-12-05T05:26:14;28.30;;;11.00;;
43457;SDS011;29046;54.184;18.680;2022-12-05T05:28:49;27.65;;;11.68;;
43457;SDS011;29046;54.184;18.680;2022-12-05T05:31:37;24.58;;;9.65;;
43457;SDS011;29046;54.184;18.680;2022-12-05T05:34:11;29.98;;;11.85;;
43457;SDS011;29046;54.184;18.680;2022-12-05T05:37:05;26.90;;;11.88;;
43457;SDS011;29046;54.184;18.680;2022-12-05T05:39:59;25.15;;;11.85;;
43457;SDS011;29046;54.184;18.680;2022-12-05T05:42:43;22.52;;;11.88;;
43457;SDS011;29046;54.184;18.680;2022-12-05T05:45:31;24.80;;;12.13;;
43457;SDS011;29046;54.184;18.680;2022-12-05T05:48:05;21.80;;;10.35;;
43457;SDS011;29046;54.184;18.680;2022-12-05T05:50:52;31.60;;;10.55;;
43457;SDS011;29046;54.184;18.680;2022-12-05T05:53:26;26.98;;;11.90;;
43457;SDS011;29046;54.184;18.680;2022-12-05T05:56:17;27.58;;;12.07;;
43457;SDS011;29046;54.184;18.680;2022-12-05T05:58:56;26.30;;;11.52;;
43457;SDS011;29046;54.184;18.680;2022-12-05T06:01:51;26.20;;;12.25;;
43457;SDS011;29046;54.184;18.680;2022-12-05T06:04:25;20.98;;;10.02;;
43457;SDS011;29046;54.184;18.680;2022-12-05T06:07:19;23.77;;;11.02;;
43457;SDS011;29046;54.184;18.680;2022-12-05T06:09:53;27.98;;;12.40;;
43457;SDS011;29046;54.184;18.680;2022-12-05T06:12:40;29.85;;;12.98;;
43457;SDS011;29046;54.184;18.680;2022-12-05T06:15:14;34.53;;;12.45;;
43457;SDS011;29046;54.184;18.680;2022-12-05T06:18:02;31.85;;;14.45;;
43457;SDS011;29046;54.184;18.680;2022-12-05T06:20:51;30.35;;;13.43;;
43457;SDS011;29046;54.184;18.680;2022-12-05T06:23:44;23.52;;;10.95;;
43457;SDS011;29046;54.184;18.680;2022-12-05T06:26:20;31.02;;;11.50;;
43457;SDS011;29046;54.184;18.680;2022-12-05T06:29:07;29.50;;;12.77;;
43457;SDS011;29046;54.184;18.680;2022-12-05T06:31:51;36.00;;;13.10;;
43457;SDS011;29046;54.184;18.680;2022-12-05T06:34:38;32.00;;;13.25;;
43457;SDS011;29046;54.184;18.680;2022-12-05T06:37:13;29.90;;;12.77;;
43457;SDS011;29046;54.184;18.680;2022-12-05T06:40:00;35.78;;;14.50;;
43457;SDS011;29046;54.184;18.680;2022-12-05T06:42:35;27.95;;;11.27;;
43457;SDS011;29046;54.184;18.680;2022-12-05T06:45:22;32.50;;;13.13;;
43457;SDS011;29046;54.184;18.680;2022-12-05T06:48:03;32.75;;;13.52;;
43457;SDS011;29046;54.184;18.680;2022-12-05T06:50:47;29.77;;;13.02;;
43457;SDS011;29046;54.184;18.680;2022-12-05T06:53:28;32.55;;;14.05;;
43457;SDS011;29046;54.184;18.680;2022-12-05T06:56:16;35.08;;;14.60;;
43457;SDS011;29046;54.184;18.680;2022-12-05T06:58:58;33.15;;;16.02;;
43457;SDS011;29046;54.184;18.680;2022-12-05T07:01:45;38.22;;;16.73;;
43457;SDS011;29046;54.184;18.680;2022-12-05T07:04:20;29.70;;;15.13;;
43457;SDS011;29046;54.184;18.680;2022-12-05T07:07:08;26.65;;;12.77;;
43457;SDS011;29046;54.184;18.680;2022-12-05T07:09:50;37.60;;;15.48;;
43457;SDS011;29046;54.184;18.680;2022-12-05T07:12:31;32.72;;;15.57;;
43457;SDS011;29046;54.184;18.680;2022-12-05T07:15:12;32.40;;;15.45;;
43457;SDS011;29046;54.184;18.680;2022-12-05T07:17:59;33.05;;;13.98;;
43457;SDS011;29046;54.184;18.680;2022-12-05T07:20:34;36.03;;;16.08;;
43457;SDS011;29046;54.184;18.680;2022-12-05T07:23:48;33.08;;;15.93;;
43457;SDS011;29046;54.184;18.680;2022-12-05T07:26:43;34.63;;;16.13;;
43457;SDS011;29046;54.184;18.680;2022-12-05T07:29:17;42.45;;;16.70;;
43457;SDS011;29046;54.184;18.680;2022-12-05T07:32:04;30.20;;;14.73;;
43457;SDS011;29046;54.184;18.680;2022-12-05T07:34:39;29.17;;;12.73;;
43457;SDS011;29046;54.184;18.680;2022-12-05T07:37:33;34.15;;;14.70;;
43457;SDS011;29046;54.184;18.680;2022-12-05T07:40:07;40.50;;;16.63;;
43457;SDS011;29046;54.184;18.680;2022-12-05T07:43:01;38.90;;;16.92;;
43457;SDS011;29046;54.184;18.680;2022-12-05T07:45:35;36.58;;;16.77;;
43457;SDS011;29046;54.184;18.680;2022-12-05T07:48:22;29.20;;;13.90;;
43457;SDS011;29046;54.184;18.680;2022-12-05T07:51:03;25.48;;;12.88;;
43457;SDS011;29046;54.184;18.680;2022-12-05T07:53:57;34.80;;;15.35;;
43457;SDS011;29046;54.184;18.680;2022-12-05T07:56:52;36.33;;;16.65;;
43457;SDS011;29046;54.184;18.680;2022-12-05T07:59:26;38.13;;;16.90;;
43457;SDS011;29046;54.184;18.680;2022-12-05T08:02:13;38.25;;;14.93;;
43457;SDS011;29046;54.184;18.680;2022-12-05T08:04:48;32.05;;;14.00;;
43457;SDS011;29046;54.184;18.680;2022-12-05T08:07:35;32.08;;;14.25;;
43457;SDS011;29046;54.184;18.680;2022-12-05T08:10:09;35.90;;;13.57;;
43457;SDS011;29046;54.184;18.680;2022-12-05T08:13:04;33.47;;;15.32;;
43457;SDS011;29046;54.184;18.680;2022-12-05T08:16:02;32.70;;;13.60;;
43457;SDS011;29046;54.184;18.680;2022-12-05T08:18:37;31.67;;;16.08;;
43457;SDS011;29046;54.184;18.680;2022-12-05T08:21:24;41.38;;;18.23;;
43457;SDS011;29046;54.184;18.680;2022-12-05T08:23:59;40.58;;;17.25;;
43457;SDS011;29046;54.184;18.680;2022-12-05T08:26:46;37.50;;;17.27;;
43457;SDS011;29046;54.184;18.680;2022-12-05T08:29:20;46.13;;;19.38;;
43457;SDS011;29046;54.184;18.680;2022-12-05T08:32:07;40.00;;;16.83;;
43457;SDS011;29046;54.184;18.680;2022-12-05T08:34:47;40.00;;;16.95;;
43457;SDS011;29046;54.184;18.680;2022-12-05T08:37:35;39.55;;;15.95;;
43457;SDS011;29046;54.184;18.680;2022-12-05T08:40:10;33.65;;;15.75;;
43457;SDS011;29046;54.184;18.680;2022-12-05T08:42:57;44.83;;;18.15;;
43457;SDS011;29046;54.184;18.680;2022-12-05T08:45:31;39.72;;;17.02;;
43457;SDS011;29046;54.184;18.680;2022-12-05T08:48:21;38.67;;;19.15;;
43457;SDS011;29046;54.184;18.680;2022-12-05T08:51:07;53.90;;;22.27;;
43457;SDS011;29046;54.184;18.680;2022-12-05T08:53:55;53.85;;;19.95;;
43457;SDS011;29046;54.184;18.680;2022-12-05T08:56:35;40.53;;;16.15;;
43457;SDS011;29046;54.184;18.680;2022-12-05T08:59:23;35.85;;;16.95;;
43457;SDS011;29046;54.184;18.680;2022-12-05T09:02:10;36.97;;;15.70;;
43457;SDS011;29046;54.184;18.680;2022-12-05T09:05:04;42.03;;;17.98;;
43457;SDS011;29046;54.184;18.680;2022-12-05T09:08:07;37.17;;;16.73;;
43457;SDS011;29046;54.184;18.680;2022-12-05T09:10:41;40.92;;;17.58;;
43457;SDS011;29046;54.184;18.680;2022-12-05T09:13:35;41.55;;;17.05;;
43457;SDS011;29046;54.184;18.680;2022-12-05T09:16:11;37.67;;;17.20;;
43457;SDS011;29046;54.184;18.680;2022-12-05T09:18:59;37.30;;;15.30;;
43457;SDS011;29046;54.184;18.680;2022-12-05T09:21:33;29.77;;;14.05;;
43457;SDS011;29046;54.184;18.680;2022-12-05T09:24:20;36.88;;;16.83;;
43457;SDS011;29046;54.184;18.680;2022-12-05T09:26:54;27.20;;;14.00;;
43457;SDS011;29046;54.184;18.680;2022-12-05T09:29:41;45.10;;;15.95;;
43457;SDS011;29046;54.184;18.680;2022-12-05T09:32:22;33.17;;;15.20;;
43457;SDS011;29046;54.184;18.680;2022-12-05T09:35:02;49.65;;;17.85;;
43457;SDS011;29046;54.184;18.680;2022-12-05T09:37:44;45.55;;;17.98;;
43457;SDS011;29046;54.184;18.680;2022-12-05T09:40:27;40.00;;;16.25;;
43457;SDS011;29046;54.184;18.680;2022-12-05T09:43:20;37.95;;;16.88;;
43457;SDS011;29046;54.184;18.680;2022-12-05T09:46:11;39.85;;;16.75;;
43457;SDS011;29046;54.184;18.680;2022-12-05T09:48:55;42.92;;;17.73;;
43457;SDS011;29046;54.184;18.680;2022-12-05T09:51:36;36.65;;;13.73;;
43457;SDS011;29046;54.184;18.680;2022-12-05T09:54:27;37.00;;;16.80;;
43457;SDS011;29046;54.184;18.680;2022-12-05T09:57:08;39.50;;;15.88;;
43457;SDS011;29046;54.184;18.680;2022-12-05T09:59:51;42.30;;;16.83;;
43457;SDS011;29046;54.184;18.680;2022-12-05T10:02:35;37.17;;;16.00;;
43457;SDS011;29046;54.184;18.680;2022-12-05T10:11:03;24.48;;;12.02;;
43457;SDS011;29046;54.184;18.680;2022-12-05T10:16:53;42.00;;;16.92;;
43457;SDS011;29046;54.184;18.680;2022-12-05T10:19:43;43.72;;;18.48;;
43457;SDS011;29046;54.184;18.680;2022-12-05T10:22:28;38.38;;;15.15;;
43457;SDS011;29046;54.184;18.680;2022-12-05T10:25:09;42.25;;;17.10;;
43457;SDS011;29046;54.184;18.680;2022-12-05T10:27:54;36.63;;;14.45;;
43457;SDS011;29046;54.184;18.680;2022-12-05T10:30:36;47.80;;;14.95;;
43457;SDS011;29046;54.184;18.680;2022-12-05T10:33:21;40.20;;;16.60;;
43457;SDS011;29046;54.184;18.680;2022-12-05T10:36:01;52.83;;;19.50;;
43457;SDS011;29046;54.184;18.680;2022-12-05T10:38:43;38.28;;;15.75;;
43457;SDS011;29046;54.184;18.680;2022-12-05T10:41:37;39.22;;;17.95;;
43457;SDS011;29046;54.184;18.680;2022-12-05T10:44:32;41.08;;;17.00;;
43457;SDS011;29046;54.184;18.680;2022-12-05T10:47:06;37.80;;;16.17;;
43457;SDS011;29046;54.184;18.680;2022-12-05T10:50:05;52.30;;;20.33;;
43457;SDS011;29046;54.184;18.680;2022-12-05T10:52:59;42.75;;;18.70;;
43457;SDS011;29046;54.184;18.680;2022-12-05T10:55:41;45.33;;;18.27;;
43457;SDS011;29046;54.184;18.680;2022-12-05T10:58:54;43.33;;;18.08;;
43457;SDS011;29046;54.184;18.680;2022-12-05T11:01:31;36.42;;;15.75;;
43457;SDS011;29046;54.184;18.680;2022-12-05T11:04:19;36.53;;;17.88;;
43457;SDS011;29046;54.184;18.680;2022-12-05T11:09:43;47.15;;;17.75;;
43457;SDS011;29046;54.184;18.680;2022-12-05T11:12:20;43.47;;;16.40;;
43457;SDS011;29046;54.184;18.680;2022-12-05T11:17:52;35.30;;;15.98;;
43457;SDS011;29046;54.184;18.680;2022-12-05T11:20:40;37.15;;;17.15;;
43457;SDS011;29046;54.184;18.680;2022-12-05T11:23:35;40.42;;;16.25;;
43457;SDS011;29046;54.184;18.680;2022-12-05T11:29:02;36.47;;;17.30;;
43457;SDS011;29046;54.184;18.680;2022-12-05T11:31:50;43.25;;;19.15;;
43457;SDS011;29046;54.184;18.680;2022-12-05T11:34:41;56.17;;;17.95;;
43457;SDS011;29046;54.184;18.680;2022-12-05T11:37:27;55.55;;;20.00;;
43457;SDS011;29046;54.184;18.680;2022-12-05T11:43:06;51.65;;;19.38;;
43457;SDS011;29046;54.184;18.680;2022-12-05T12:02:14;52.78;;;21.20;;
43457;SDS011;29046;54.184;18.680;2022-12-05T12:08:36;47.80;;;22.58;;
43457;SDS011;29046;54.184;18.680;2022-12-05T12:11:44;49.75;;;20.63;;
43457;SDS011;29046;54.184;18.680;2022-12-05T12:14:45;41.40;;;18.98;;
43457;SDS011;29046;54.184;18.680;2022-12-05T12:17:37;42.60;;;19.60;;
43457;SDS011;29046;54.184;18.680;2022-12-05T12:29:07;56.38;;;22.58;;
43457;SDS011;29046;54.184;18.680;2022-12-05T12:31:56;44.30;;;18.33;;
43457;SDS011;29046;54.184;18.680;2022-12-05T12:34:51;54.50;;;22.90;;
43457;SDS011;29046;54.184;18.680;2022-12-05T12:40:46;41.03;;;17.27;;
43457;SDS011;29046;54.184;18.680;2022-12-05T12:43:41;46.40;;;21.30;;
43457;SDS011;29046;54.184;18.680;2022-12-05T12:52:16;53.08;;;21.40;;
43457;SDS011;29046;54.184;18.680;2022-12-05T12:58:01;53.72;;;23.60;;
43457;SDS011;29046;54.184;18.680;2022-12-05T13:03:30;56.28;;;22.48;;
43457;SDS011;29046;54.184;18.680;2022-12-05T13:06:12;50.72;;;22.45;;
43457;SDS011;29046;54.184;18.680;2022-12-05T13:11:52;44.53;;;21.65;;
43457;SDS011;29046;54.184;18.680;2022-12-05T13:14:48;45.67;;;19.90;;
43457;SDS011;29046;54.184;18.680;2022-12-05T13:17:31;43.53;;;19.33;;
43457;SDS011;29046;54.184;18.680;2022-12-05T13:20:20;36.33;;;18.80;;
43457;SDS011;29046;54.184;18.680;2022-12-05T13:23:02;35.58;;;16.83;;
43457;SDS011;29046;54.184;18.680;2022-12-05T13:25:42;38.08;;;18.25;;
43457;SDS011;29046;54.184;18.680;2022-12-05T13:28:38;45.38;;;21.45;;
43457;SDS011;29046;54.184;18.680;2022-12-05T13:31:45;48.33;;;21.25;;
43457;SDS011;29046;54.184;18.680;2022-12-05T13:37:09;46.97;;;20.77;;
43457;SDS011;29046;54.184;18.680;2022-12-05T13:40:27;51.03;;;20.08;;
43457;SDS011;29046;54.184;18.680;2022-12-05T13:43:42;40.30;;;18.92;;
43457;SDS011;29046;54.184;18.680;2022-12-05T13:46:33;53.70;;;21.55;;
43457;SDS011;29046;54.184;18.680;2022-12-05T13:49:28;62.63;;;25.17;;
43457;SDS011;29046;54.184;18.680;2022-12-05T13:52:09;58.85;;;23.70;;
43457;SDS011;29046;54.184;18.680;2022-12-05T13:55:13;47.88;;;22.38;;
43457;SDS011;29046;54.184;18.680;2022-12-05T13:57:50;53.10;;;21.25;;
43457;SDS011;29046;54.184;18.680;2022-12-05T14:00:37;50.58;;;24.25;;
43457;SDS011;29046;54.184;18.680;2022-12-05T14:06:05;42.00;;;20.65;;
43457;SDS011;29046;54.184;18.680;2022-12-05T14:08:50;46.13;;;22.00;;
43457;SDS011;29046;54.184;18.680;2022-12-05T14:11:38;52.70;;;22.95;;
43457;SDS011;29046;54.184;18.680;2022-12-05T14:14:12;42.08;;;19.90;;
43457;SDS011;29046;54.184;18.680;2022-12-05T14:17:28;50.53;;;21.27;;
43457;SDS011;29046;54.184;18.680;2022-12-05T14:23:33;51.75;;;22.02;;
43457;SDS011;29046;54.184;18.680;2022-12-05T14:32:14;49.58;;;22.70;;
43457;SDS011;29046;54.184;18.680;2022-12-05T14:34:53;46.97;;;20.95;;
43457;SDS011;29046;54.184;18.680;2022-12-05T14:40:27;42.28;;;21.80;;
43457;SDS011;29046;54.184;18.680;2022-12-05T14:46:06;41.13;;;20.83;;
43457;SDS011;29046;54.184;18.680;2022-12-05T14:49:32;49.15;;;23.67;;
43457;SDS011;29046;54.184;18.680;2022-12-05T14:52:26;69.67;;;26.63;;
43457;SDS011;29046;54.184;18.680;2022-12-05T14:55:05;53.23;;;24.70;;
43457;SDS011;29046;54.184;18.680;2022-12-05T14:58:09;45.08;;;21.60;;
43457;SDS011;29046;54.184;18.680;2022-12-05T15:01:26;63.22;;;24.05;;
43457;SDS011;29046;54.184;18.680;2022-12-05T15:04:15;51.80;;;23.70;;
43457;SDS011;29046;54.184;18.680;2022-12-05T15:12:42;56.30;;;27.15;;
43457;SDS011;29046;54.184;18.680;2022-12-05T15:18:19;54.78;;;25.13;;
43457;SDS011;29046;54.184;18.680;2022-12-05T15:24:15;41.97;;;20.38;;
43457;SDS011;29046;54.184;18.680;2022-12-05T15:27:10;38.72;;;20.48;;
43457;SDS011;29046;54.184;18.680;2022-12-05T15:30:04;45.20;;;20.08;;
43457;SDS011;29046;54.184;18.680;2022-12-05T15:32:39;41.72;;;19.13;;
43457;SDS011;29046;54.184;18.680;2022-12-05T15:35:27;42.22;;;21.27;;
43457;SDS011;29046;54.184;18.680;2022-12-05T15:38:05;49.45;;;21.52;;
43457;SDS011;29046;54.184;18.680;2022-12-05T15:41:14;52.55;;;22.60;;
43457;SDS011;29046;54.184;18.680;2022-12-05T15:43:56;49.85;;;22.40;;
43457;SDS011;29046;54.184;18.680;2022-12-05T15:46:36;55.63;;;23.30;;
43457;SDS011;29046;54.184;18.680;2022-12-05T15:49:20;49.65;;;22.92;;
43457;SDS011;29046;54.184;18.680;2022-12-05T15:55:03;56.65;;;23.67;;
43457;SDS011;29046;54.184;18.680;2022-12-05T15:58:00;52.45;;;23.17;;
43457;SDS011;29046;54.184;18.680;2022-12-05T16:00:39;50.90;;;24.70;;
43457;SDS011;29046;54.184;18.680;2022-12-05T16:06:42;62.17;;;26.27;;
43457;SDS011;29046;54.184;18.680;2022-12-05T16:12:17;55.50;;;23.50;;
43457;SDS011;29046;54.184;18.680;2022-12-05T16:14:53;56.33;;;23.17;;
43457;SDS011;29046;54.184;18.680;2022-12-05T16:17:54;54.53;;;26.17;;
43457;SDS011;29046;54.184;18.680;2022-12-05T16:20:52;59.43;;;27.00;;
43457;SDS011;29046;54.184;18.680;2022-12-05T16:23:28;68.65;;;28.98;;
43457;SDS011;29046;54.184;18.680;2022-12-05T16:26:18;74.95;;;29.67;;
43457;SDS011;29046;54.184;18.680;2022-12-05T16:28:59;66.25;;;28.70;;
43457;SDS011;29046;54.184;18.680;2022-12-05T16:31:42;56.25;;;25.40;;
43457;SDS011;29046;54.184;18.680;2022-12-05T16:34:23;54.70;;;25.83;;
43457;SDS011;29046;54.184;18.680;2022-12-05T16:37:05;53.92;;;25.33;;
43457;SDS011;29046;54.184;18.680;2022-12-05T16:39:46;52.42;;;23.95;;
43457;SDS011;29046;54.184;18.680;2022-12-05T16:42:28;65.40;;;25.13;;
43457;SDS011;29046;54.184;18.680;2022-12-05T16:45:08;51.15;;;22.38;;
43457;SDS011;29046;54.184;18.680;2022-12-05T16:48:02;44.10;;;21.20;;
43457;SDS011;29046;54.184;18.680;2022-12-05T16:50:50;54.33;;;23.23;;
43457;SDS011;29046;54.184;18.680;2022-12-05T16:53:30;47.88;;;22.70;;
43457;SDS011;29046;54.184;18.680;2022-12-05T16:56:19;49.33;;;21.50;;
43457;SDS011;29046;54.184;18.680;2022-12-05T16:59:03;44.80;;;19.70;;
43457;SDS011;29046;54.184;18.680;2022-12-05T17:01:43;48.25;;;21.48;;
43457;SDS011;29046;54.184;18.680;2022-12-05T17:04:24;56.13;;;23.58;;
43457;SDS011;29046;54.184;18.680;2022-12-05T17:07:04;56.15;;;23.10;;
43457;SDS011;29046;54.184;18.680;2022-12-05T17:09:46;47.90;;;21.88;;
43457;SDS011;29046;54.184;18.680;2022-12-05T17:12:33;54.53;;;23.13;;
43457;SDS011;29046;54.184;18.680;2022-12-05T17:15:17;53.55;;;23.13;;
43457;SDS011;29046;54.184;18.680;2022-12-05T17:18:09;49.78;;;21.65;;
43457;SDS011;29046;54.184;18.680;2022-12-05T17:20:45;50.42;;;22.73;;
43457;SDS011;29046;54.184;18.680;2022-12-05T17:23:36;48.20;;;22.48;;
43457;SDS011;29046;54.184;18.680;2022-12-05T17:26:16;57.53;;;23.40;;
43457;SDS011;29046;54.184;18.680;2022-12-05T17:29:04;56.70;;;24.07;;
43457;SDS011;29046;54.184;18.680;2022-12-05T17:31:39;53.42;;;23.30;;
43457;SDS011;29046;54.184;18.680;2022-12-05T17:34:26;45.35;;;21.73;;
43457;SDS011;29046;54.184;18.680;2022-12-05T17:37:01;39.40;;;18.55;;
43457;SDS011;29046;54.184;18.680;2022-12-05T17:39:48;50.92;;;20.85;;
43457;SDS011;29046;54.184;18.680;2022-12-05T17:42:23;55.78;;;21.45;;
43457;SDS011;29046;54.184;18.680;2022-12-05T17:45:11;55.53;;;24.05;;
43457;SDS011;29046;54.184;18.680;2022-12-05T17:47:47;59.78;;;24.30;;
43457;SDS011;29046;54.184;18.680;2022-12-05T17:50:34;62.53;;;28.65;;
43457;SDS011;29046;54.184;18.680;2022-12-05T17:53:13;73.43;;;34.13;;
43457;SDS011;29046;54.184;18.680;2022-12-05T17:56:00;72.07;;;34.47;;
43457;SDS011;29046;54.184;18.680;2022-12-05T17:58:35;68.82;;;26.73;;
43457;SDS011;29046;54.184;18.680;2022-12-05T18:01:22;59.50;;;25.58;;
43457;SDS011;29046;54.184;18.680;2022-12-05T18:03:57;58.08;;;24.00;;
43457;SDS011;29046;54.184;18.680;2022-12-05T18:06:44;55.80;;;22.08;;
43457;SDS011;29046;54.184;18.680;2022-12-05T18:09:19;65.20;;;24.88;;
43457;SDS011;29046;54.184;18.680;2022-12-05T18:12:06;63.13;;;24.08;;
43457;SDS011;29046;54.184;18.680;2022-12-05T18:14:41;64.80;;;24.33;;
43457;SDS011;29046;54.184;18.680;2022-12-05T18:17:28;61.80;;;25.40;;
43457;SDS011;29046;54.184;18.680;2022-12-05T18:20:10;71.45;;;28.88;;